sensor_id;sensor_type;location;lat;lon;timestamp;P1;durP1;ratioP1;P2;durP2;ratioP2
32038;SDS011;18549;42.286;22.688;2023-05-14T00:00:41;14.65;;;5.90;;
32038;SDS011;18549;42.286;22.688;2023-05-14T00:03:09;7.82;;;5.68;;
32038;SDS011;18549;42.286;22.688;2023-05-14T00:05:35;6.80;;;5.97;;
32038;SDS011;18549;42.286;22.688;2023-05-14T00:08:02;10.07;;;5.12;;
32038;SDS011;18549;42.286;22.688;2023-05-14T00:10:30;8.98;;;5.00;;
32038;SDS011;18549;42.286;22.688;2023-05-14T00:12:57;6.90;;;5.30;;
32038;SDS011;18549;42.286;22.688;2023-05-14T00:15:24;16.37;;;5.55;;
32038;SDS011;18549;42.286;22.688;2023-05-14T00:17:50;8.27;;;5.82;;
32038;SDS011;18549;42.286;22.688;2023-05-14T00:20:19;6.43;;;4.93;;
32038;SDS011;18549;42.286;22.688;2023-05-14T00:22:47;9.15;;;5.78;;
32038;SDS011;18549;42.286;22.688;2023-05-14T00:25:14;8.65;;;4.93;;
32038;SDS011;18549;42.286;22.688;2023-05-14T00:27:41;7.32;;;5.15;;
32038;SDS011;18549;42.286;22.688;2023-05-14T00:30:08;6.85;;;4.93;;
32038;SDS011;18549;42.286;22.688;2023-05-14T00:32:35;5.35;;;4.82;;
32038;SDS011;18549;42.286;22.688;2023-05-14T00:35:02;5.85;;;4.95;;
32038;SDS011;18549;42.286;22.688;2023-05-14T00:37:33;12.17;;;6.10;;
32038;SDS011;18549;42.286;22.688;2023-05-14T00:40:00;6.32;;;5.05;;
32038;SDS011;18549;42.286;22.688;2023-05-14T00:42:27;12.75;;;6.50;;
32038;SDS011;18549;42.286;22.688;2023-05-14T00:44:54;8.48;;;5.30;;
32038;SDS011;18549;42.286;22.688;2023-05-14T00:47:23;8.68;;;5.78;;
32038;SDS011;18549;42.286;22.688;2023-05-14T00:49:50;8.52;;;5.50;;
32038;SDS011;18549;42.286;22.688;2023-05-14T00:52:17;10.32;;;5.35;;
32038;SDS011;18549;42.286;22.688;2023-05-14T00:54:45;8.02;;;4.93;;
32038;SDS011;18549;42.286;22.688;2023-05-14T00:57:14;12.13;;;6.10;;
32038;SDS011;18549;42.286;22.688;2023-05-14T00:59:40;13.38;;;5.68;;
32038;SDS011;18549;42.286;22.688;2023-05-14T01:02:08;8.90;;;5.57;;
32038;SDS011;18549;42.286;22.688;2023-05-14T01:04:35;6.75;;;5.47;;
32038;SDS011;18549;42.286;22.688;2023-05-14T01:07:08;11.05;;;5.43;;
32038;SDS011;18549;42.286;22.688;2023-05-14T01:09:41;14.10;;;6.05;;
32038;SDS011;18549;42.286;22.688;2023-05-14T01:12:16;19.35;;;6.28;;
32038;SDS011;18549;42.286;22.688;2023-05-14T01:14:51;8.30;;;4.87;;
32038;SDS011;18549;42.286;22.688;2023-05-14T01:17:21;9.38;;;5.10;;
32038;SDS011;18549;42.286;22.688;2023-05-14T01:19:52;5.25;;;4.75;;
32038;SDS011;18549;42.286;22.688;2023-05-14T01:22:22;7.57;;;5.00;;
32038;SDS011;18549;42.286;22.688;2023-05-14T01:24:49;10.37;;;4.87;;
32038;SDS011;18549;42.286;22.688;2023-05-14T01:27:16;9.65;;;4.97;;
32038;SDS011;18549;42.286;22.688;2023-05-14T01:29:57;11.00;;;5.20;;
32038;SDS011;18549;42.286;22.688;2023-05-14T01:32:28;8.52;;;5.07;;
32038;SDS011;18549;42.286;22.688;2023-05-14T01:34:56;7.47;;;5.53;;
32038;SDS011;18549;42.286;22.688;2023-05-14T01:37:27;7.03;;;5.47;;
32038;SDS011;18549;42.286;22.688;2023-05-14T01:39:55;5.65;;;5.10;;
32038;SDS011;18549;42.286;22.688;2023-05-14T01:42:23;9.07;;;5.07;;
32038;SDS011;18549;42.286;22.688;2023-05-14T01:44:51;6.57;;;5.28;;
32038;SDS011;18549;42.286;22.688;2023-05-14T01:47:18;7.90;;;6.07;;
32038;SDS011;18549;42.286;22.688;2023-05-14T01:49:45;13.82;;;7.28;;
32038;SDS011;18549;42.286;22.688;2023-05-14T01:52:12;14.38;;;8.82;;
32038;SDS011;18549;42.286;22.688;2023-05-14T01:54:40;15.45;;;8.60;;
32038;SDS011;18549;42.286;22.688;2023-05-14T01:57:07;13.60;;;8.57;;
32038;SDS011;18549;42.286;22.688;2023-05-14T01:59:35;9.70;;;7.37;;
32038;SDS011;18549;42.286;22.688;2023-05-14T02:02:02;14.38;;;7.90;;
32038;SDS011;18549;42.286;22.688;2023-05-14T02:04:29;12.15;;;7.32;;
32038;SDS011;18549;42.286;22.688;2023-05-14T02:06:56;10.95;;;7.78;;
32038;SDS011;18549;42.286;22.688;2023-05-14T02:09:24;8.85;;;6.68;;
32038;SDS011;18549;42.286;22.688;2023-05-14T02:11:52;11.52;;;7.07;;
32038;SDS011;18549;42.286;22.688;2023-05-14T02:14:20;8.02;;;6.72;;
32038;SDS011;18549;42.286;22.688;2023-05-14T02:16:47;11.80;;;6.37;;
32038;SDS011;18549;42.286;22.688;2023-05-14T02:19:15;11.77;;;7.65;;
32038;SDS011;18549;42.286;22.688;2023-05-14T02:21:41;11.45;;;7.03;;
32038;SDS011;18549;42.286;22.688;2023-05-14T02:24:08;12.02;;;7.90;;
32038;SDS011;18549;42.286;22.688;2023-05-14T02:26:35;13.90;;;8.07;;
32038;SDS011;18549;42.286;22.688;2023-05-14T02:29:03;13.15;;;7.53;;
32038;SDS011;18549;42.286;22.688;2023-05-14T02:31:31;12.00;;;7.60;;
32038;SDS011;18549;42.286;22.688;2023-05-14T02:33:59;10.45;;;7.65;;
32038;SDS011;18549;42.286;22.688;2023-05-14T02:36:26;18.62;;;8.02;;
32038;SDS011;18549;42.286;22.688;2023-05-14T02:38:53;8.45;;;6.78;;
32038;SDS011;18549;42.286;22.688;2023-05-14T02:41:20;12.77;;;7.80;;
32038;SDS011;18549;42.286;22.688;2023-05-14T02:43:46;12.40;;;7.12;;
32038;SDS011;18549;42.286;22.688;2023-05-14T02:46:14;10.48;;;7.57;;
32038;SDS011;18549;42.286;22.688;2023-05-14T02:48:42;11.45;;;7.97;;
32038;SDS011;18549;42.286;22.688;2023-05-14T02:51:09;15.77;;;8.85;;
32038;SDS011;18549;42.286;22.688;2023-05-14T02:53:36;29.15;;;9.20;;
32038;SDS011;18549;42.286;22.688;2023-05-14T02:56:04;12.48;;;8.85;;
32038;SDS011;18549;42.286;22.688;2023-05-14T02:58:32;11.02;;;8.48;;
32038;SDS011;18549;42.286;22.688;2023-05-14T03:00:58;15.70;;;8.52;;
32038;SDS011;18549;42.286;22.688;2023-05-14T03:03:27;15.98;;;8.50;;
32038;SDS011;18549;42.286;22.688;2023-05-14T03:05:57;14.95;;;7.82;;
32038;SDS011;18549;42.286;22.688;2023-05-14T03:08:23;7.43;;;5.43;;
32038;SDS011;18549;42.286;22.688;2023-05-14T03:10:50;12.18;;;6.22;;
32038;SDS011;18549;42.286;22.688;2023-05-14T03:13:17;16.27;;;6.85;;
32038;SDS011;18549;42.286;22.688;2023-05-14T03:15:44;9.00;;;6.97;;
32038;SDS011;18549;42.286;22.688;2023-05-14T03:18:11;10.52;;;4.70;;
32038;SDS011;18549;42.286;22.688;2023-05-14T03:20:40;9.23;;;5.50;;
32038;SDS011;18549;42.286;22.688;2023-05-14T03:23:07;7.87;;;5.07;;
32038;SDS011;18549;42.286;22.688;2023-05-14T03:25:34;6.70;;;6.00;;
32038;SDS011;18549;42.286;22.688;2023-05-14T03:28:01;12.07;;;5.03;;
32038;SDS011;18549;42.286;22.688;2023-05-14T03:30:29;6.78;;;5.62;;
32038;SDS011;18549;42.286;22.688;2023-05-14T03:32:56;6.97;;;5.87;;
32038;SDS011;18549;42.286;22.688;2023-05-14T03:35:23;19.25;;;7.18;;
32038;SDS011;18549;42.286;22.688;2023-05-14T03:37:52;14.90;;;7.12;;
32038;SDS011;18549;42.286;22.688;2023-05-14T03:40:18;9.60;;;6.90;;
32038;SDS011;18549;42.286;22.688;2023-05-14T03:42:45;11.00;;;7.22;;
32038;SDS011;18549;42.286;22.688;2023-05-14T03:45:12;8.85;;;6.90;;
32038;SDS011;18549;42.286;22.688;2023-05-14T03:47:39;9.70;;;6.50;;
32038;SDS011;18549;42.286;22.688;2023-05-14T03:50:07;7.80;;;6.20;;
32038;SDS011;18549;42.286;22.688;2023-05-14T03:52:34;6.22;;;5.57;;
32038;SDS011;18549;42.286;22.688;2023-05-14T03:55:02;11.73;;;6.18;;
32038;SDS011;18549;42.286;22.688;2023-05-14T03:57:29;13.10;;;6.18;;
32038;SDS011;18549;42.286;22.688;2023-05-14T03:59:56;11.52;;;6.20;;
32038;SDS011;18549;42.286;22.688;2023-05-14T04:02:23;8.75;;;6.00;;
32038;SDS011;18549;42.286;22.688;2023-05-14T04:04:50;11.63;;;6.65;;
32038;SDS011;18549;42.286;22.688;2023-05-14T04:07:17;13.98;;;6.95;;
32038;SDS011;18549;42.286;22.688;2023-05-14T04:09:44;10.18;;;8.10;;
32038;SDS011;18549;42.286;22.688;2023-05-14T04:12:12;9.20;;;7.30;;
32038;SDS011;18549;42.286;22.688;2023-05-14T04:14:39;12.65;;;7.32;;
32038;SDS011;18549;42.286;22.688;2023-05-14T04:17:06;10.82;;;8.38;;
32038;SDS011;18549;42.286;22.688;2023-05-14T04:19:33;8.88;;;6.90;;
32038;SDS011;18549;42.286;22.688;2023-05-14T04:21:59;8.00;;;5.32;;
32038;SDS011;18549;42.286;22.688;2023-05-14T04:24:26;7.60;;;6.15;;
32038;SDS011;18549;42.286;22.688;2023-05-14T04:26:55;7.47;;;5.43;;
32038;SDS011;18549;42.286;22.688;2023-05-14T04:29:23;7.75;;;5.62;;
32038;SDS011;18549;42.286;22.688;2023-05-14T04:31:50;11.12;;;5.94;;
32038;SDS011;18549;42.286;22.688;2023-05-14T04:34:17;7.80;;;5.80;;
32038;SDS011;18549;42.286;22.688;2023-05-14T04:36:45;12.73;;;6.53;;
32038;SDS011;18549;42.286;22.688;2023-05-14T04:39:12;6.78;;;5.07;;
32038;SDS011;18549;42.286;22.688;2023-05-14T04:41:39;7.18;;;5.57;;
32038;SDS011;18549;42.286;22.688;2023-05-14T04:44:07;11.30;;;6.07;;
32038;SDS011;18549;42.286;22.688;2023-05-14T04:46:35;11.55;;;8.07;;
32038;SDS011;18549;42.286;22.688;2023-05-14T04:49:02;13.33;;;8.70;;
32038;SDS011;18549;42.286;22.688;2023-05-14T04:51:29;16.33;;;8.88;;
32038;SDS011;18549;42.286;22.688;2023-05-14T04:53:56;9.20;;;7.25;;
32038;SDS011;18549;42.286;22.688;2023-05-14T04:56:23;9.43;;;8.43;;
32038;SDS011;18549;42.286;22.688;2023-05-14T04:58:50;10.18;;;9.18;;
32038;SDS011;18549;42.286;22.688;2023-05-14T05:01:17;11.13;;;8.90;;
32038;SDS011;18549;42.286;22.688;2023-05-14T05:03:45;13.82;;;9.27;;
32038;SDS011;18549;42.286;22.688;2023-05-14T05:06:14;15.52;;;7.95;;
32038;SDS011;18549;42.286;22.688;2023-05-14T05:08:41;11.63;;;7.78;;
32038;SDS011;18549;42.286;22.688;2023-05-14T05:11:08;12.00;;;7.32;;
32038;SDS011;18549;42.286;22.688;2023-05-14T05:13:35;12.40;;;7.17;;
32038;SDS011;18549;42.286;22.688;2023-05-14T05:16:01;21.77;;;8.43;;
32038;SDS011;18549;42.286;22.688;2023-05-14T05:18:28;15.27;;;7.43;;
32038;SDS011;18549;42.286;22.688;2023-05-14T05:20:56;12.13;;;6.53;;
32038;SDS011;18549;42.286;22.688;2023-05-14T05:23:23;6.20;;;5.60;;
32038;SDS011;18549;42.286;22.688;2023-05-14T05:25:50;11.57;;;6.20;;
32038;SDS011;18549;42.286;22.688;2023-05-14T05:28:17;8.68;;;5.97;;
32038;SDS011;18549;42.286;22.688;2023-05-14T05:30:44;10.70;;;7.12;;
32038;SDS011;18549;42.286;22.688;2023-05-14T05:33:10;11.52;;;7.32;;
32038;SDS011;18549;42.286;22.688;2023-05-14T05:35:38;8.98;;;7.25;;
32038;SDS011;18549;42.286;22.688;2023-05-14T05:38:06;7.75;;;6.20;;
32038;SDS011;18549;42.286;22.688;2023-05-14T05:40:32;8.38;;;7.00;;
32038;SDS011;18549;42.286;22.688;2023-05-14T05:42:59;10.70;;;7.90;;
32038;SDS011;18549;42.286;22.688;2023-05-14T05:45:26;9.00;;;7.63;;
32038;SDS011;18549;42.286;22.688;2023-05-14T05:47:53;10.03;;;7.07;;
32038;SDS011;18549;42.286;22.688;2023-05-14T05:50:19;8.07;;;7.27;;
32038;SDS011;18549;42.286;22.688;2023-05-14T05:52:48;13.10;;;7.82;;
32038;SDS011;18549;42.286;22.688;2023-05-14T05:55:21;12.03;;;7.03;;
32038;SDS011;18549;42.286;22.688;2023-05-14T05:57:48;11.53;;;7.37;;
32038;SDS011;18549;42.286;22.688;2023-05-14T06:00:16;10.57;;;7.27;;
32038;SDS011;18549;42.286;22.688;2023-05-14T06:02:44;11.23;;;7.57;;
32038;SDS011;18549;42.286;22.688;2023-05-14T06:05:12;8.55;;;7.57;;
32038;SDS011;18549;42.286;22.688;2023-05-14T06:07:40;9.83;;;7.93;;
32038;SDS011;18549;42.286;22.688;2023-05-14T06:10:07;10.43;;;6.83;;
32038;SDS011;18549;42.286;22.688;2023-05-14T06:12:36;7.77;;;6.70;;
32038;SDS011;18549;42.286;22.688;2023-05-14T06:15:02;10.37;;;6.07;;
32038;SDS011;18549;42.286;22.688;2023-05-14T06:17:33;13.40;;;6.77;;
32038;SDS011;18549;42.286;22.688;2023-05-14T06:20:01;9.43;;;7.73;;
32038;SDS011;18549;42.286;22.688;2023-05-14T06:22:29;11.80;;;7.25;;
32038;SDS011;18549;42.286;22.688;2023-05-14T06:24:58;10.73;;;7.50;;
32038;SDS011;18549;42.286;22.688;2023-05-14T06:27:27;13.03;;;7.60;;
32038;SDS011;18549;42.286;22.688;2023-05-14T06:29:59;11.55;;;7.20;;
32038;SDS011;18549;42.286;22.688;2023-05-14T06:32:26;12.27;;;7.13;;
32038;SDS011;18549;42.286;22.688;2023-05-14T06:34:53;8.33;;;6.53;;
32038;SDS011;18549;42.286;22.688;2023-05-14T06:37:22;10.80;;;7.47;;
32038;SDS011;18549;42.286;22.688;2023-05-14T06:39:49;10.97;;;7.40;;
32038;SDS011;18549;42.286;22.688;2023-05-14T06:42:17;9.43;;;7.17;;
32038;SDS011;18549;42.286;22.688;2023-05-14T06:44:44;10.00;;;7.53;;
32038;SDS011;18549;42.286;22.688;2023-05-14T06:47:12;15.20;;;7.93;;
32038;SDS011;18549;42.286;22.688;2023-05-14T06:49:39;17.60;;;8.38;;
32038;SDS011;18549;42.286;22.688;2023-05-14T06:52:06;13.90;;;7.40;;
32038;SDS011;18549;42.286;22.688;2023-05-14T06:54:33;10.23;;;7.17;;
32038;SDS011;18549;42.286;22.688;2023-05-14T06:57:00;11.27;;;7.45;;
32038;SDS011;18549;42.286;22.688;2023-05-14T06:59:26;8.10;;;7.27;;
32038;SDS011;18549;42.286;22.688;2023-05-14T07:02:40;12.57;;;7.43;;
32038;SDS011;18549;42.286;22.688;2023-05-14T07:05:03;10.77;;;7.27;;
32038;SDS011;18549;42.286;22.688;2023-05-14T07:07:30;9.27;;;6.93;;
32038;SDS011;18549;42.286;22.688;2023-05-14T07:09:57;10.40;;;8.80;;
32038;SDS011;18549;42.286;22.688;2023-05-14T07:12:24;10.52;;;7.15;;
32038;SDS011;18549;42.286;22.688;2023-05-14T07:14:51;13.02;;;8.38;;
32038;SDS011;18549;42.286;22.688;2023-05-14T07:17:21;18.35;;;8.10;;
32038;SDS011;18549;42.286;22.688;2023-05-14T07:19:49;9.32;;;7.28;;
32038;SDS011;18549;42.286;22.688;2023-05-14T07:22:16;12.40;;;8.07;;
32038;SDS011;18549;42.286;22.688;2023-05-14T07:24:42;11.02;;;8.23;;
32038;SDS011;18549;42.286;22.688;2023-05-14T07:27:09;8.60;;;7.70;;
32038;SDS011;18549;42.286;22.688;2023-05-14T07:29:36;8.02;;;6.87;;
32038;SDS011;18549;42.286;22.688;2023-05-14T07:32:03;10.45;;;7.20;;
32038;SDS011;18549;42.286;22.688;2023-05-14T07:34:32;8.67;;;7.30;;
32038;SDS011;18549;42.286;22.688;2023-05-14T07:37:00;11.97;;;7.43;;
32038;SDS011;18549;42.286;22.688;2023-05-14T07:39:27;13.10;;;7.47;;
32038;SDS011;18549;42.286;22.688;2023-05-14T07:41:54;9.93;;;7.45;;
32038;SDS011;18549;42.286;22.688;2023-05-14T07:44:21;10.10;;;7.23;;
32038;SDS011;18549;42.286;22.688;2023-05-14T07:46:48;17.48;;;7.05;;
32038;SDS011;18549;42.286;22.688;2023-05-14T07:49:16;9.43;;;6.80;;
32038;SDS011;18549;42.286;22.688;2023-05-14T07:51:43;8.33;;;6.83;;
32038;SDS011;18549;42.286;22.688;2023-05-14T07:54:11;8.63;;;7.10;;
32038;SDS011;18549;42.286;22.688;2023-05-14T07:56:38;13.43;;;7.15;;
32038;SDS011;18549;42.286;22.688;2023-05-14T07:59:05;10.52;;;7.75;;
32038;SDS011;18549;42.286;22.688;2023-05-14T08:01:32;9.45;;;7.22;;
32038;SDS011;18549;42.286;22.688;2023-05-14T08:03:59;13.50;;;7.10;;
32038;SDS011;18549;42.286;22.688;2023-05-14T08:06:27;9.85;;;7.57;;
32038;SDS011;18549;42.286;22.688;2023-05-14T08:08:55;7.72;;;6.22;;
32038;SDS011;18549;42.286;22.688;2023-05-14T08:11:24;16.20;;;7.33;;
32038;SDS011;18549;42.286;22.688;2023-05-14T08:13:51;10.67;;;7.37;;
32038;SDS011;18549;42.286;22.688;2023-05-14T08:16:19;12.15;;;7.43;;
32038;SDS011;18549;42.286;22.688;2023-05-14T08:18:46;11.45;;;7.75;;
32038;SDS011;18549;42.286;22.688;2023-05-14T08:21:12;12.00;;;7.03;;
32038;SDS011;18549;42.286;22.688;2023-05-14T08:23:39;8.98;;;6.78;;
32038;SDS011;18549;42.286;22.688;2023-05-14T08:26:07;12.23;;;8.13;;
32038;SDS011;18549;42.286;22.688;2023-05-14T08:28:35;11.80;;;8.10;;
32038;SDS011;18549;42.286;22.688;2023-05-14T08:31:02;10.87;;;8.23;;
32038;SDS011;18549;42.286;22.688;2023-05-14T08:33:29;11.68;;;7.32;;
32038;SDS011;18549;42.286;22.688;2023-05-14T08:35:59;10.02;;;6.95;;
32038;SDS011;18549;42.286;22.688;2023-05-14T08:38:25;12.90;;;7.27;;
32038;SDS011;18549;42.286;22.688;2023-05-14T08:40:53;10.23;;;6.93;;
32038;SDS011;18549;42.286;22.688;2023-05-14T08:43:23;10.95;;;7.00;;
32038;SDS011;18549;42.286;22.688;2023-05-14T08:45:56;12.00;;;6.97;;
32038;SDS011;18549;42.286;22.688;2023-05-14T08:48:25;7.87;;;6.35;;
32038;SDS011;18549;42.286;22.688;2023-05-14T08:50:56;8.03;;;5.87;;
32038;SDS011;18549;42.286;22.688;2023-05-14T08:53:24;7.50;;;5.83;;
32038;SDS011;18549;42.286;22.688;2023-05-14T08:55:51;6.07;;;5.47;;
32038;SDS011;18549;42.286;22.688;2023-05-14T08:58:19;7.50;;;6.63;;
32038;SDS011;18549;42.286;22.688;2023-05-14T09:00:45;11.53;;;7.27;;
32038;SDS011;18549;42.286;22.688;2023-05-14T09:03:16;10.77;;;6.50;;
32038;SDS011;18549;42.286;22.688;2023-05-14T09:05:46;9.65;;;6.93;;
32038;SDS011;18549;42.286;22.688;2023-05-14T09:08:14;8.10;;;6.93;;
32038;SDS011;18549;42.286;22.688;2023-05-14T09:10:41;11.70;;;8.20;;
32038;SDS011;18549;42.286;22.688;2023-05-14T09:13:07;13.70;;;7.70;;
32038;SDS011;18549;42.286;22.688;2023-05-14T09:15:35;10.32;;;7.90;;
32038;SDS011;18549;42.286;22.688;2023-05-14T09:18:03;14.83;;;10.00;;
32038;SDS011;18549;42.286;22.688;2023-05-14T09:20:32;12.93;;;8.75;;
32038;SDS011;18549;42.286;22.688;2023-05-14T09:23:00;13.13;;;8.23;;
32038;SDS011;18549;42.286;22.688;2023-05-14T09:25:28;10.35;;;7.20;;
32038;SDS011;18549;42.286;22.688;2023-05-14T09:27:57;14.47;;;7.90;;
32038;SDS011;18549;42.286;22.688;2023-05-14T09:30:24;11.97;;;8.80;;
32038;SDS011;18549;42.286;22.688;2023-05-14T09:32:52;11.70;;;9.17;;
32038;SDS011;18549;42.286;22.688;2023-05-14T09:35:19;11.68;;;7.20;;
32038;SDS011;18549;42.286;22.688;2023-05-14T09:37:49;15.15;;;7.97;;
32038;SDS011;18549;42.286;22.688;2023-05-14T09:40:18;11.43;;;7.30;;
32038;SDS011;18549;42.286;22.688;2023-05-14T09:42:48;11.90;;;7.97;;
32038;SDS011;18549;42.286;22.688;2023-05-14T09:45:15;11.23;;;7.97;;
32038;SDS011;18549;42.286;22.688;2023-05-14T09:47:42;15.70;;;7.97;;
32038;SDS011;18549;42.286;22.688;2023-05-14T09:50:09;9.53;;;6.47;;
32038;SDS011;18549;42.286;22.688;2023-05-14T09:52:36;9.70;;;7.93;;
32038;SDS011;18549;42.286;22.688;2023-05-14T09:55:06;7.13;;;6.13;;
32038;SDS011;18549;42.286;22.688;2023-05-14T09:57:35;9.70;;;6.97;;
32038;SDS011;18549;42.286;22.688;2023-05-14T10:00:02;10.00;;;5.90;;
32038;SDS011;18549;42.286;22.688;2023-05-14T10:02:33;10.38;;;6.72;;
32038;SDS011;18549;42.286;22.688;2023-05-14T10:05:02;10.70;;;6.17;;
32038;SDS011;18549;42.286;22.688;2023-05-14T10:07:32;8.00;;;5.85;;
32038;SDS011;18549;42.286;22.688;2023-05-14T10:10:01;9.77;;;6.60;;
32038;SDS011;18549;42.286;22.688;2023-05-14T10:12:33;13.33;;;7.43;;
32038;SDS011;18549;42.286;22.688;2023-05-14T10:15:05;12.37;;;7.60;;
32038;SDS011;18549;42.286;22.688;2023-05-14T10:17:38;13.83;;;8.63;;
32038;SDS011;18549;42.286;22.688;2023-05-14T10:20:09;7.83;;;6.23;;
32038;SDS011;18549;42.286;22.688;2023-05-14T10:22:40;9.77;;;6.87;;
32038;SDS011;18549;42.286;22.688;2023-05-14T10:25:07;8.13;;;7.15;;
32038;SDS011;18549;42.286;22.688;2023-05-14T10:27:36;9.27;;;6.97;;
32038;SDS011;18549;42.286;22.688;2023-05-14T10:30:04;15.40;;;7.32;;
32038;SDS011;18549;42.286;22.688;2023-05-14T10:32:36;10.05;;;6.78;;
32038;SDS011;18549;42.286;22.688;2023-05-14T10:35:13;7.47;;;6.27;;
32038;SDS011;18549;42.286;22.688;2023-05-14T10:37:41;9.48;;;6.12;;
32038;SDS011;18549;42.286;22.688;2023-05-14T10:40:11;9.10;;;5.70;;
32038;SDS011;18549;42.286;22.688;2023-05-14T10:42:39;8.90;;;5.68;;
32038;SDS011;18549;42.286;22.688;2023-05-14T10:45:08;11.65;;;5.93;;
32038;SDS011;18549;42.286;22.688;2023-05-14T10:47:36;6.80;;;5.10;;
32038;SDS011;18549;42.286;22.688;2023-05-14T10:50:05;8.60;;;6.00;;
32038;SDS011;18549;42.286;22.688;2023-05-14T10:52:34;9.38;;;5.90;;
32038;SDS011;18549;42.286;22.688;2023-05-14T10:55:01;9.98;;;6.35;;
32038;SDS011;18549;42.286;22.688;2023-05-14T10:57:31;8.05;;;5.45;;
32038;SDS011;18549;42.286;22.688;2023-05-14T11:00:02;11.52;;;5.70;;
32038;SDS011;18549;42.286;22.688;2023-05-14T11:02:32;14.48;;;6.75;;
32038;SDS011;18549;42.286;22.688;2023-05-14T11:05:01;7.40;;;5.75;;
32038;SDS011;18549;42.286;22.688;2023-05-14T11:07:30;7.87;;;5.53;;
32038;SDS011;18549;42.286;22.688;2023-05-14T11:10:01;7.97;;;5.12;;
32038;SDS011;18549;42.286;22.688;2023-05-14T11:12:29;13.02;;;5.87;;
32038;SDS011;18549;42.286;22.688;2023-05-14T11:14:57;10.52;;;6.45;;
32038;SDS011;18549;42.286;22.688;2023-05-14T11:17:27;13.40;;;6.20;;
32038;SDS011;18549;42.286;22.688;2023-05-14T11:19:57;13.82;;;6.53;;
32038;SDS011;18549;42.286;22.688;2023-05-14T11:22:24;6.62;;;5.25;;
32038;SDS011;18549;42.286;22.688;2023-05-14T11:24:51;8.50;;;6.07;;
32038;SDS011;18549;42.286;22.688;2023-05-14T11:27:18;10.10;;;5.53;;
32038;SDS011;18549;42.286;22.688;2023-05-14T11:29:49;9.57;;;6.18;;
32038;SDS011;18549;42.286;22.688;2023-05-14T11:32:16;6.47;;;4.97;;
32038;SDS011;18549;42.286;22.688;2023-05-14T11:34:44;13.20;;;5.37;;
32038;SDS011;18549;42.286;22.688;2023-05-14T11:37:12;5.80;;;5.12;;
32038;SDS011;18549;42.286;22.688;2023-05-14T11:39:45;6.45;;;4.78;;
32038;SDS011;18549;42.286;22.688;2023-05-14T11:42:12;10.60;;;5.93;;
32038;SDS011;18549;42.286;22.688;2023-05-14T11:44:43;11.88;;;5.90;;
32038;SDS011;18549;42.286;22.688;2023-05-14T11:47:10;9.40;;;5.80;;
32038;SDS011;18549;42.286;22.688;2023-05-14T11:49:37;10.95;;;5.43;;
32038;SDS011;18549;42.286;22.688;2023-05-14T11:52:06;13.52;;;5.25;;
32038;SDS011;18549;42.286;22.688;2023-05-14T11:54:36;7.95;;;4.65;;
32038;SDS011;18549;42.286;22.688;2023-05-14T11:57:06;6.78;;;4.62;;
32038;SDS011;18549;42.286;22.688;2023-05-14T11:59:34;8.98;;;6.28;;
32038;SDS011;18549;42.286;22.688;2023-05-14T12:02:01;10.70;;;6.28;;
32038;SDS011;18549;42.286;22.688;2023-05-14T12:04:29;9.23;;;6.22;;
32038;SDS011;18549;42.286;22.688;2023-05-14T12:06:56;9.10;;;6.43;;
32038;SDS011;18549;42.286;22.688;2023-05-14T12:09:25;10.20;;;6.70;;
32038;SDS011;18549;42.286;22.688;2023-05-14T12:11:52;7.57;;;4.87;;
32038;SDS011;18549;42.286;22.688;2023-05-14T12:14:20;9.50;;;6.20;;
32038;SDS011;18549;42.286;22.688;2023-05-14T12:16:49;10.73;;;6.07;;
32038;SDS011;18549;42.286;22.688;2023-05-14T12:19:17;12.02;;;5.62;;
32038;SDS011;18549;42.286;22.688;2023-05-14T12:21:45;12.60;;;7.10;;
32038;SDS011;18549;42.286;22.688;2023-05-14T12:24:16;8.85;;;4.90;;
32038;SDS011;18549;42.286;22.688;2023-05-14T12:26:45;8.43;;;5.03;;
32038;SDS011;18549;42.286;22.688;2023-05-14T12:29:13;8.43;;;5.62;;
32038;SDS011;18549;42.286;22.688;2023-05-14T12:31:44;10.82;;;6.55;;
32038;SDS011;18549;42.286;22.688;2023-05-14T12:34:12;10.02;;;5.62;;
32038;SDS011;18549;42.286;22.688;2023-05-14T12:36:40;8.10;;;5.95;;
32038;SDS011;18549;42.286;22.688;2023-05-14T12:39:08;13.25;;;6.45;;
32038;SDS011;18549;42.286;22.688;2023-05-14T12:41:36;13.82;;;6.72;;
32038;SDS011;18549;42.286;22.688;2023-05-14T12:44:04;14.13;;;7.62;;
32038;SDS011;18549;42.286;22.688;2023-05-14T12:46:31;13.35;;;6.75;;
32038;SDS011;18549;42.286;22.688;2023-05-14T12:48:59;8.75;;;6.25;;
32038;SDS011;18549;42.286;22.688;2023-05-14T12:51:27;13.43;;;7.78;;
32038;SDS011;18549;42.286;22.688;2023-05-14T12:53:55;11.00;;;6.40;;
32038;SDS011;18549;42.286;22.688;2023-05-14T12:56:21;6.78;;;5.45;;
32038;SDS011;18549;42.286;22.688;2023-05-14T12:58:52;8.57;;;5.70;;
32038;SDS011;18549;42.286;22.688;2023-05-14T13:01:21;10.95;;;5.57;;
32038;SDS011;18549;42.286;22.688;2023-05-14T13:03:49;8.48;;;5.45;;
32038;SDS011;18549;42.286;22.688;2023-05-14T13:06:16;10.00;;;5.65;;
32038;SDS011;18549;42.286;22.688;2023-05-14T13:08:45;6.30;;;4.80;;
32038;SDS011;18549;42.286;22.688;2023-05-14T13:11:11;9.07;;;6.12;;
32038;SDS011;18549;42.286;22.688;2023-05-14T13:13:38;12.20;;;6.37;;
32038;SDS011;18549;42.286;22.688;2023-05-14T13:16:05;6.40;;;5.43;;
32038;SDS011;18549;42.286;22.688;2023-05-14T13:18:34;10.50;;;6.15;;
32038;SDS011;18549;42.286;22.688;2023-05-14T13:21:00;15.38;;;8.77;;
32038;SDS011;18549;42.286;22.688;2023-05-14T13:23:30;9.23;;;5.45;;
32038;SDS011;18549;42.286;22.688;2023-05-14T13:25:57;18.70;;;5.65;;
32038;SDS011;18549;42.286;22.688;2023-05-14T13:28:23;9.98;;;4.87;;
32038;SDS011;18549;42.286;22.688;2023-05-14T13:31:03;7.40;;;4.80;;
32038;SDS011;18549;42.286;22.688;2023-05-14T13:33:33;9.27;;;5.57;;
32038;SDS011;18549;42.286;22.688;2023-05-14T13:36:01;8.70;;;5.97;;
32038;SDS011;18549;42.286;22.688;2023-05-14T13:38:28;7.32;;;5.50;;
32038;SDS011;18549;42.286;22.688;2023-05-14T13:40:54;13.82;;;6.45;;
32038;SDS011;18549;42.286;22.688;2023-05-14T13:43:26;11.27;;;6.10;;
32038;SDS011;18549;42.286;22.688;2023-05-14T13:45:53;14.65;;;6.20;;
32038;SDS011;18549;42.286;22.688;2023-05-14T13:48:21;8.07;;;6.37;;
32038;SDS011;18549;42.286;22.688;2023-05-14T13:50:49;13.98;;;6.62;;
32038;SDS011;18549;42.286;22.688;2023-05-14T13:53:16;10.20;;;7.00;;
32038;SDS011;18549;42.286;22.688;2023-05-14T13:55:43;19.27;;;12.07;;
32038;SDS011;18549;42.286;22.688;2023-05-14T13:58:10;23.12;;;12.70;;
32038;SDS011;18549;42.286;22.688;2023-05-14T14:00:37;12.20;;;8.23;;
32038;SDS011;18549;42.286;22.688;2023-05-14T14:03:04;17.05;;;9.27;;
32038;SDS011;18549;42.286;22.688;2023-05-14T14:05:32;11.27;;;8.40;;
32038;SDS011;18549;42.286;22.688;2023-05-14T14:08:01;8.68;;;7.15;;
32038;SDS011;18549;42.286;22.688;2023-05-14T14:10:29;17.12;;;9.30;;
32038;SDS011;18549;42.286;22.688;2023-05-14T14:12:56;11.18;;;7.25;;
32038;SDS011;18549;42.286;22.688;2023-05-14T14:15:22;11.03;;;6.90;;
32038;SDS011;18549;42.286;22.688;2023-05-14T14:17:49;13.95;;;7.47;;
32038;SDS011;18549;42.286;22.688;2023-05-14T14:20:16;12.68;;;7.93;;
32038;SDS011;18549;42.286;22.688;2023-05-14T14:22:43;11.25;;;7.20;;
32038;SDS011;18549;42.286;22.688;2023-05-14T14:25:11;14.25;;;7.37;;
32038;SDS011;18549;42.286;22.688;2023-05-14T14:27:38;12.98;;;8.15;;
32038;SDS011;18549;42.286;22.688;2023-05-14T14:30:06;15.25;;;8.02;;